| time (UTC) | temp F | wind direction | speed knots | gust knots | rain 1hr in | rain 24hr in | rain mn in | humidity % | barometer mb |
| 20260507134649 | 50 | 266 | 1.7 | 3.5 | 0.00 | 0.00 | 0.00 | 81 | 1020.3 |
| 20260507132849 | 50 | 304 | 1.7 | 4.3 | 0.00 | 0.00 | 0.00 | 81 | 1020.3 |
| 20260507131950 | 50 | 303 | 3.5 | 6.1 | 0.00 | 0.00 | 0.00 | 81 | 1020.2 |
| 20260507131049 | 50 | 302 | 3.5 | 6.1 | 0.00 | 0.00 | 0.00 | 81 | 1020.3 |
| 20260507130149 | 50 | 304 | 4.3 | 7.0 | 0.00 | 0.00 | 0.00 | 81 | 1020.4 |
| 20260507125249 | 50 | 294 | 4.3 | 7.0 | 0.00 | 0.00 | 0.00 | 81 | 1020.3 |
| 20260507124349 | 50 | 306 | 4.3 | 7.8 | 0.00 | 0.00 | 0.00 | 81 | 1020.3 |
| 20260507122549 | 50 | 299 | 2.6 | 7.0 | 0.00 | 0.00 | 0.00 | 81 | 1020.3 |
| 20260507121649 | 51 | 306 | 3.5 | 7.0 | 0.00 | 0.00 | 0.00 | 81 | 1020.4 |
| 20260507120749 | 51 | 303 | 3.5 | 7.0 | 0.00 | 0.00 | 0.00 | 81 | 1020.4 |
| 20260507115850 | 51 | 292 | 3.5 | 5.2 | 0.00 | 0.00 | 0.00 | 81 | 1020.4 |
| 20260507114949 | 51 | 293 | 3.5 | 7.0 | 0.00 | 0.00 | 0.00 | 81 | 1020.4 |
| 20260507114050 | 51 | 292 | 4.3 | 7.0 | 0.00 | 0.00 | 0.00 | 81 | 1020.4 |
| 20260507113151 | 51 | 292 | 3.5 | 7.8 | 0.00 | 0.00 | 0.00 | 81 | 1020.4 |
| 20260507112249 | 51 | 300 | 3.5 | 5.2 | 0.00 | 0.00 | 0.00 | 81 | 1020.4 |
| 20260507111349 | 52 | 285 | 3.5 | 5.2 | 0.00 | 0.00 | 0.00 | 81 | 1020.4 |
| 20260507110449 | 52 | 285 | 2.6 | 7.0 | 0.00 | 0.00 | 0.00 | 82 | 1020.5 |
| 20260507105549 | 52 | 288 | 3.5 | 6.1 | 0.00 | 0.00 | 0.00 | 81 | 1020.5 |
| 20260507103749 | 52 | 286 | 2.6 | 4.3 | 0.00 | 0.00 | 0.00 | 82 | 1020.7 |
| 20260507102849 | 52 | 297 | 2.6 | 6.1 | 0.00 | 0.00 | 0.00 | 82 | 1020.7 |
| 20260507101049 | 52 | 309 | 3.5 | 5.2 | 0.00 | 0.00 | 0.00 | 83 | 1020.8 |
| 20260507100149 | 52 | 304 | 3.5 | 7.0 | 0.00 | 0.00 | 0.00 | 82 | 1020.8 |
| 20260507095249 | 52 | 291 | 3.5 | 5.2 | 0.00 | 0.00 | 0.00 | 82 | 1020.8 |
| 20260507094349 | 53 | 290 | 3.5 | 7.0 | 0.00 | 0.00 | 0.00 | 82 | 1020.9 |
| 20260507093449 | 53 | 287 | 3.5 | 6.1 | 0.00 | 0.00 | 0.00 | 82 | 1020.9 |
| 20260507092549 | 53 | 297 | 3.5 | 7.8 | 0.00 | 0.00 | 0.00 | 82 | 1021.0 |
| 20260507091649 | 53 | 313 | 3.5 | 7.8 | 0.00 | 0.00 | 0.00 | 81 | 1021.0 |
| 20260507090749 | 53 | 306 | 3.5 | 7.0 | 0.00 | 0.00 | 0.00 | 81 | 1021.1 |
| 20260507085849 | 53 | 290 | 3.5 | 6.1 | 0.00 | 0.00 | 0.00 | 81 | 1021.1 |
| 20260507084949 | 53 | 294 | 4.3 | 7.8 | 0.00 | 0.00 | 0.00 | 81 | 1021.1 |
| 20260507084049 | 53 | 297 | 4.3 | 8.7 | 0.00 | 0.00 | 0.00 | 81 | 1021.1 |
| 20260507083149 | 53 | 310 | 3.5 | 6.1 | 0.00 | 0.00 | 0.00 | 82 | 1021.2 |
| 20260507082249 | 53 | 296 | 3.5 | 7.0 | 0.00 | 0.00 | 0.00 | 82 | 1021.2 |
| 20260507080449 | 53 | 294 | 3.5 | 7.0 | 0.00 | 0.00 | 0.00 | 82 | 1021.1 |
| 20260507075549 | 53 | 303 | 2.6 | 7.0 | 0.00 | 0.00 | 0.00 | 82 | 1021.2 |
| 20260507074649 | 54 | 292 | 2.6 | 6.1 | 0.00 | 0.00 | 0.00 | 82 | 1021.1 |
| 20260507073749 | 53 | 286 | 3.5 | 7.0 | 0.00 | 0.00 | 0.00 | 82 | 1021.0 |
| 20260507072849 | 54 | 290 | 3.5 | 6.1 | 0.00 | 0.00 | 0.00 | 81 | 1021.0 |
| 20260507071949 | 54 | 307 | 2.6 | 5.2 | 0.00 | 0.00 | 0.00 | 81 | 1020.9 |
| 20260507065249 | 54 | 302 | 3.5 | 6.1 | 0.00 | 0.00 | 0.00 | 81 | 1021.0 |
| 20260507064349 | 54 | 290 | 4.3 | 7.8 | 0.00 | 0.00 | 0.00 | 81 | 1021.0 |
| 20260507063449 | 54 | 302 | 3.5 | 7.0 | 0.00 | 0.00 | 0.00 | 81 | 1021.0 |
| 20260507062550 | 54 | 292 | 4.3 | 7.8 | 0.00 | 0.00 | 0.00 | 81 | 1021.0 |
| 20260507061649 | 54 | 284 | 3.5 | 6.1 | 0.00 | 0.00 | 0.00 | 81 | 1020.9 |
| 20260507055849 | 54 | 296 | 3.5 | 7.0 | 0.00 | 0.00 | 0.00 | 81 | 1020.9 |
| 20260507054950 | 55 | 307 | 5.2 | 9.6 | 0.00 | 0.00 | 0.00 | 80 | 1020.8 |
| 20260507053149 | 55 | 301 | 4.3 | 10.4 | 0.00 | 0.00 | 0.00 | 80 | 1020.7 |
| 20260507052249 | 55 | 300 | 5.2 | 8.7 | 0.00 | 0.00 | 0.00 | 80 | 1020.7 |
| 20260507050449 | 56 | 291 | 5.2 | 8.7 | 0.00 | 0.00 | 0.00 | 80 | 1020.8 |
| 20260507045549 | 56 | 298 | 5.2 | 8.7 | 0.00 | 0.00 | 0.00 | 80 | 1020.8 |
| 20260507044649 | 56 | 311 | 6.1 | 13.9 | 0.00 | 0.00 | 0.00 | 80 | 1020.7 |
| 20260507043749 | 56 | 323 | 7.0 | 13.0 | 0.00 | 0.00 | 0.00 | 80 | 1020.7 |
| 20260507042849 | 56 | 327 | 7.8 | 13.0 | 0.00 | 0.00 | 0.00 | 80 | 1020.6 |
| 20260507041949 | 57 | 332 | 7.0 | 12.2 | 0.00 | 0.00 | 0.00 | 79 | 1020.5 |
| 20260507041049 | 57 | 326 | 7.0 | 13.0 | 0.00 | 0.00 | 0.00 | 79 | 1020.5 |
| 20260507040149 | 58 | 325 | 7.0 | 13.0 | 0.00 | 0.00 | 0.00 | 79 | 1020.3 |
| 20260507035250 | 58 | 323 | 5.2 | 9.6 | 0.00 | 0.00 | 0.00 | 79 | 1020.2 |
| 20260507034349 | 58 | 322 | 7.0 | 13.9 | 0.00 | 0.00 | 0.00 | 79 | 1020.0 |
| 20260507033449 | 58 | 329 | 7.8 | 13.9 | 0.00 | 0.00 | 0.00 | 79 | 1019.9 |
| 20260507032549 | 59 | 329 | 7.0 | 12.2 | 0.00 | 0.00 | 0.00 | 79 | 1019.8 |
| 20260507031649 | 59 | 325 | 7.0 | 11.3 | 0.00 | 0.00 | 0.00 | 79 | 1019.7 |
| 20260507030749 | 59 | 319 | 6.1 | 10.4 | 0.00 | 0.00 | 0.00 | 79 | 1019.6 |
| 20260507025849 | 60 | 323 | 5.2 | 9.6 | 0.00 | 0.00 | 0.00 | 78 | 1019.4 |
| 20260507024949 | 60 | 322 | 5.2 | 7.8 | 0.00 | 0.00 | 0.00 | 78 | 1019.4 |
| 20260507024049 | 61 | 324 | 4.3 | 8.7 | 0.00 | 0.00 | 0.00 | 77 | 1019.4 |
| 20260507022249 | 61 | 325 | 6.1 | 10.4 | 0.00 | 0.00 | 0.00 | 76 | 1019.3 |
| 20260507020450 | 62 | 329 | 7.8 | 13.0 | 0.00 | 0.00 | 0.00 | 75 | 1019.4 |
| 20260507015549 | 62 | 328 | 7.0 | 10.4 | 0.00 | 0.00 | 0.00 | 75 | 1019.5 |
| 20260507014649 | 62 | 324 | 7.8 | 11.3 | 0.00 | 0.00 | 0.00 | 75 | 1019.6 |
| 20260507013749 | 63 | 328 | 5.2 | 11.3 | 0.00 | 0.00 | 0.00 | 75 | 1019.6 |
| 20260507012849 | 64 | 329 | 4.3 | 7.0 | 0.00 | 0.00 | 0.00 | 76 | 1019.5 |
| 20260507011949 | 64 | 324 | 4.3 | 7.0 | 0.00 | 0.00 | 0.00 | 76 | 1019.5 |
| 20260507010149 | 64 | 324 | 4.3 | 7.0 | 0.00 | 0.00 | 0.00 | 76 | 1019.6 |
| 20260507004349 | 64 | 321 | 4.3 | 7.0 | 0.00 | 0.00 | 0.00 | 74 | 1019.6 |
| 20260507003449 | 64 | 335 | 4.3 | 6.1 | 0.00 | 0.00 | 0.00 | 74 | 1019.6 |
| 20260507001649 | 64 | 321 | 4.3 | 7.0 | 0.00 | 0.00 | 0.00 | 73 | 1019.6 |
| 20260507000749 | 64 | 332 | 3.5 | 6.1 | 0.00 | 0.00 | 0.00 | 72 | 1019.6 |
| 20260506234949 | 64 | 333 | 4.3 | 7.0 | 0.00 | 0.00 | 0.00 | 71 | 1019.6 |
| 20260506234049 | 65 | 3 | 3.5 | 6.1 | 0.00 | 0.00 | 0.00 | 70 | 1019.6 |
| 20260506233149 | 65 | 357 | 3.5 | 6.1 | 0.00 | 0.00 | 0.00 | 70 | 1019.6 |
| 20260506232249 | 64 | 15 | 4.3 | 6.1 | 0.00 | 0.00 | 0.00 | 72 | 1019.7 |
| 20260506230449 | 64 | 21 | 2.6 | 6.1 | 0.00 | 0.00 | 0.00 | 72 | 1019.9 |
| 20260506225549 | 65 | 328 | 3.5 | 6.1 | 0.00 | 0.00 | 0.00 | 71 | 1019.9 |
| 20260506222849 | 63 | 322 | 2.6 | 6.1 | 0.00 | 0.00 | 0.00 | 74 | 1020.2 |
| 20260506221949 | 64 | 333 | 3.5 | 5.2 | 0.00 | 0.00 | 0.00 | 73 | 1020.2 |
| 20260506221049 | 64 | 351 | 2.6 | 5.2 | 0.00 | 0.00 | 0.00 | 72 | 1020.2 |
| 20260506220149 | 64 | 329 | 2.6 | 5.2 | 0.00 | 0.00 | 0.00 | 73 | 1020.2 |
| 20260506215249 | 65 | 311 | 2.6 | 7.8 | 0.00 | 0.00 | 0.00 | 72 | 1020.2 |
| 20260506214349 | 65 | 292 | 1.7 | 4.3 | 0.00 | 0.00 | 0.00 | 75 | 1020.2 |
| 20260506213449 | 63 | 320 | 2.6 | 6.1 | 0.00 | 0.00 | 0.00 | 77 | 1020.4 |
| 20260506210749 | 61 | 9 | 4.3 | 7.0 | 0.00 | 0.00 | 0.00 | 79 | 1020.7 |
| 20260506204949 | 61 | 7 | 2.6 | 5.2 | 0.00 | 0.00 | 0.00 | 78 | 1020.5 |
| 20260506204049 | 62 | 15 | 1.7 | 3.5 | 0.00 | 0.00 | 0.00 | 77 | 1020.4 |
| 20260506202249 | 61 | 265 | 1.7 | 4.3 | 0.00 | 0.00 | 0.00 | 80 | 1020.7 |
| 20260506201349 | 61 | 315 | 2.6 | 5.2 | 0.00 | 0.00 | 0.00 | 80 | 1020.7 |
| 20260506200449 | 60 | 317 | 3.5 | 7.0 | 0.00 | 0.00 | 0.00 | 81 | 1020.7 |
| 20260506195549 | 60 | 334 | 2.6 | 6.1 | 0.00 | 0.00 | 0.00 | 80 | 1020.8 |
| 20260506194649 | 59 | 331 | 3.5 | 5.2 | 0.00 | 0.00 | 0.00 | 81 | 1021.0 |
| 20260506193748 | 60 | 316 | 3.5 | 6.1 | 0.00 | 0.00 | 0.00 | 80 | 1021.0 |
| 20260506191949 | 61 | 229 | 3.5 | 6.1 | 0.00 | 0.00 | 0.00 | 80 | 1020.8 |
| 20260506191049 | 61 | 228 | 2.6 | 5.2 | 0.00 | 0.00 | 0.00 | 80 | 1020.8 |
| 20260506190149 | 60 | 232 | 3.5 | 7.0 | 0.00 | 0.00 | 0.00 | 80 | 1020.8 |
| 20260506185249 | 60 | 245 | 2.6 | 7.0 | 0.00 | 0.00 | 0.00 | 81 | 1020.8 |
| 20260506184349 | 60 | 249 | 2.6 | 4.3 | 0.00 | 0.00 | 0.00 | 81 | 1020.7 |
| 20260506183449 | 60 | 305 | 1.7 | 5.2 | 0.00 | 0.00 | 0.00 | 82 | 1020.7 |
| 20260506182549 | 59 | 310 | 1.7 | 4.3 | 0.00 | 0.00 | 0.00 | 83 | 1020.8 |
| 20260506181649 | 58 | 329 | 2.6 | 5.2 | 0.00 | 0.00 | 0.00 | 83 | 1020.8 |
| 20260506180750 | 58 | 321 | 2.6 | 4.3 | 0.00 | 0.00 | 0.00 | 82 | 1020.9 |
| 20260506175849 | 58 | 277 | 2.6 | 5.2 | 0.00 | 0.00 | 0.00 | 82 | 1020.8 |
| 20260506174949 | 58 | 277 | 2.6 | 5.2 | 0.00 | 0.00 | 0.00 | 83 | 1020.7 |
| 20260506174048 | 58 | 254 | 0.9 | 2.6 | 0.00 | 0.00 | 0.00 | 85 | 1020.5 |
| 20260506173148 | 57 | 331 | 1.7 | 4.3 | 0.00 | 0.00 | 0.00 | 86 | 1020.6 |
| 20260506172248 | 56 | 319 | 2.6 | 5.2 | 0.00 | 0.00 | 0.00 | 86 | 1020.5 |
| 20260506171348 | 56 | 328 | 3.5 | 5.2 | 0.00 | 0.00 | 0.00 | 86 | 1020.6 |
| 20260506164648 | 56 | 334 | 4.3 | 7.8 | 0.00 | 0.00 | 0.00 | 85 | 1020.5 |
| 20260506163748 | 57 | 324 | 3.5 | 5.2 | 0.00 | 0.00 | 0.00 | 85 | 1020.3 |
| 20260506162849 | 58 | 253 | 1.7 | 4.3 | 0.00 | 0.00 | 0.00 | 85 | 1020.2 |
| 20260506161950 | 58 | 281 | 1.7 | 3.5 | 0.00 | 0.00 | 0.00 | 85 | 1020.2 |
| 20260506161049 | 57 | 197 | 1.7 | 4.3 | 0.00 | 0.00 | 0.00 | 87 | 1020.0 |
| 20260506154349 | 55 | 310 | 1.7 | 4.3 | 0.00 | 0.00 | 0.00 | 89 | 1020.3 |
| 20260506153449 | 54 | 328 | 3.5 | 7.0 | 0.00 | 0.00 | 0.00 | 88 | 1020.5 |
| 20260506152549 | 54 | 333 | 4.3 | 7.0 | 0.00 | 0.00 | 0.00 | 89 | 1020.6 |
| 20260506151648 | 54 | 327 | 4.3 | 7.0 | 0.00 | 0.00 | 0.00 | 88 | 1020.4 |
| 20260506150748 | 55 | 332 | 4.3 | 7.8 | 0.00 | 0.00 | 0.00 | 88 | 1020.3 |
| 20260506145849 | 55 | 329 | 5.2 | 7.8 | 0.00 | 0.00 | 0.00 | 88 | 1020.2 |
| 20260506144948 | 55 | 331 | 4.3 | 7.8 | 0.00 | 0.00 | 0.00 | 87 | 1020.2 |
| 20260506144048 | 56 | 330 | 3.5 | 6.1 | 0.00 | 0.00 | 0.00 | 87 | 1019.8 |
| 20260506143149 | 56 | 309 | 1.7 | 3.5 | 0.00 | 0.00 | 0.00 | 88 | 1019.7 |
| 20260506142248 | 56 | 310 | 1.7 | 2.6 | 0.00 | 0.00 | 0.00 | 87 | 1019.6 |
| 20260506140448 | 55 | 264 | 1.7 | 2.6 | 0.00 | 0.00 | 0.00 | 88 | 1019.7 |
| 20260506135548 | 55 | 243 | 1.7 | 3.5 | 0.00 | 0.00 | 0.00 | 88 | 1019.6 |